Temp: 5.7°C   Baro: 1005.9mb
  Wind: 6.0mph   Dir: NW (316°)
  Rain: 4.2mm (0.0mm/hr)
  Solar: 0W/m2  Hum: 88%

Historic data

Bath Spa Weather Station Historical Data
Daily Summary for September 8, 2019 Units:  Metric    English   Both
Daily Weekly Monthly Yearly Custom
  High: Low: Average:
Temperature: 12.1 °C 5.9 °C 8.9 °C
Dew Point: 10.9 °C 3.6 °C 6.3 °C
Humidity: 93% 72% 84%
Wind Speed: 29km/h 5.3km/h 16.4km/h
Wind Gust: 56.3km/h - -
Wind- - WSW
Pressure: 1002.6 hPa 990.1 hPa -
Precipitation: 13.21 mm    
Historical Graphs
 
 
Tabular Data for September 8, 2019
Time Temperature Dew Point Pressure Wind Wind Speed Wind Gust Humidity Rainfall Rate (Hourly) solar
00:04 10.7 °C 9.2 °C 1002.6 hPa South 17.7 km/h 33.8 km/h 90.6% 1.27 mm 0 W/m2
00:09 10.7 °C 9.3 °C 1002.6 hPa SSW 17.1 km/h 35.4 km/h 91% 1.52 mm 0 W/m2
00:14 10.7 °C 9.3 °C 1002.6 hPa SSW 17.4 km/h 33.8 km/h 91% 1.52 mm 0 W/m2
00:19 10.8 °C 9.4 °C 1002.6 hPa SSW 24.8 km/h 35.4 km/h 91% 1.52 mm 0 W/m2
00:24 10.8 °C 9.4 °C 1002.6 hPa SSW 21.4 km/h 37 km/h 91% 1.78 mm 0 W/m2
00:29 10.8 °C 9.4 °C 1002.6 hPa SSW 23.2 km/h 35.4 km/h 91% 2.03 mm 0 W/m2
00:34 10.8 °C 9.4 °C 1002.6 hPa SSW 14.3 km/h 35.4 km/h 91% 2.29 mm 0 W/m2
00:39 10.8 °C 9.4 °C 1002.6 hPa SSW 22.5 km/h 46.7 km/h 91% 2.29 mm 0 W/m2
00:44 10.9 °C 9.5 °C 1002.6 hPa SSW 13.8 km/h 33.8 km/h 91.2% 2.54 mm 0 W/m2
00:49 10.8 °C 9.6 °C 1002.3 hPa South 11.1 km/h 24.1 km/h 92% 2.79 mm 0 W/m2
00:54 10.9 °C 9.7 °C 1002.3 hPa South 21.7 km/h 32.2 km/h 92% 2.79 mm 0 W/m2
00:59 10.9 °C 9.7 °C 1001.9 hPa SSW 13.8 km/h 20.9 km/h 92% 2.79 mm 0 W/m2
01:04 10.9 °C 9.7 °C 1001.9 hPa SSW 17.1 km/h 30.6 km/h 92% 2.79 mm 0 W/m2
01:09 11.1 °C 9.8 °C 1001.6 hPa SW 18 km/h 33.8 km/h 92% 3.05 mm 0 W/m2
01:14 11.2 °C 9.8 °C 1001.9 hPa SW 15.1 km/h 30.6 km/h 92% 3.3 mm 0 W/m2
01:19 11.2 °C 9.9 °C 1001.9 hPa SSW 13.8 km/h 30.6 km/h 92% 3.3 mm 0 W/m2
01:24 11.3 °C 10 °C 1001.2 hPa SW 21.2 km/h 33.8 km/h 92% 3.3 mm 0 W/m2
01:29 11.4 °C 10.1 °C 1001.2 hPa SW 15.8 km/h 32.2 km/h 92% 2.79 mm 0 W/m2
01:34 11.3 °C 10.1 °C 1001.2 hPa SSW 14.2 km/h 32.2 km/h 92% 2.79 mm 0 W/m2
01:39 11.4 °C 10.1 °C 1000.9 hPa SSW 13.8 km/h 25.7 km/h 92% 2.54 mm 0 W/m2
01:44 11.4 °C 10.1 °C 1000.9 hPa SSW 13.2 km/h 27.4 km/h 92% 2.29 mm 0 W/m2
01:49 11.4 °C 10.1 °C 1000.9 hPa SSW 21.4 km/h 35.4 km/h 92% 2.03 mm 0 W/m2
01:54 11.6 °C 10.3 °C 1000.6 hPa SSW 14.8 km/h 32.2 km/h 92% 2.03 mm 0 W/m2
01:59 11.5 °C 10.2 °C 1000.6 hPa South 12.6 km/h 32.2 km/h 92% 2.03 mm 0 W/m2
02:04 11.6 °C 10.2 °C 1000.6 hPa SW 19.3 km/h 37 km/h 92% 1.52 mm 0 W/m2
02:09 11.6 °C 10.3 °C 1000.6 hPa SW 12.2 km/h 37 km/h 92% 1.27 mm 0 W/m2
02:14 11.7 °C 10.3 °C 1000.2 hPa SSW 15.1 km/h 35.4 km/h 92% 1.27 mm 0 W/m2
02:19 11.6 °C 10.3 °C 1000.2 hPa WSW 12.6 km/h 29 km/h 92% 1.02 mm 0 W/m2
02:24 11.6 °C 10.3 °C 1000.2 hPa SW 14.2 km/h 27.4 km/h 92% 0.76 mm 0 W/m2
02:29 11.6 °C 10.3 °C 1000.2 hPa SW 14.5 km/h 22.5 km/h 92% 0.76 mm 0 W/m2
02:34 11.6 °C 10.4 °C 1000.2 hPa SW 12.2 km/h 27.4 km/h 92.8% 0.76 mm 0 W/m2
02:39 11.7 °C 10.6 °C 999.9 hPa SW 16.1 km/h 30.6 km/h 93% 0.51 mm 0 W/m2
02:44 11.7 °C 10.6 °C 999.9 hPa SSW 17.2 km/h 30.6 km/h 93% 0.51 mm 0 W/m2
02:49 11.7 °C 10.7 °C 999.5 hPa SSW 21.6 km/h 37 km/h 93% 0.25 mm 0 W/m2
02:54 11.8 °C 10.7 °C 999.5 hPa SSW 14.5 km/h 37 km/h 93% 0.25 mm 0 W/m2
02:58 11.8 °C 10.7 °C 999.5 hPa SW 16.9 km/h 27.4 km/h 93% 0 mm 0 W/m2
03:04 11.8 °C 10.7 °C 999.9 hPa SW 20.3 km/h 30.6 km/h 93% 0 mm 0 W/m2
03:09 11.9 °C 10.8 °C 1000.2 hPa West 28 km/h 56.3 km/h 93% 0.25 mm 0 W/m2
03:14 12.1 °C 10.9 °C 999.9 hPa WSW 20 km/h 46.7 km/h 92.6% 0.25 mm 0 W/m2
03:19 12.1 °C 10.8 °C 999.5 hPa WSW 12.9 km/h 33.8 km/h 92% 0.25 mm 0 W/m2
03:24 12.1 °C 10.7 °C 999.9 hPa West 11.6 km/h 29 km/h 91% 0.25 mm 0 W/m2
03:29 12 °C 10.4 °C 999.5 hPa WSW 22.9 km/h 43.5 km/h 90.2% 0.25 mm 0 W/m2
03:34 11.9 °C 10.2 °C 999.5 hPa West 11.6 km/h 43.5 km/h 89.2% 0.25 mm 0 W/m2
03:38 11.8 °C 9.9 °C 999.5 hPa West 8.9 km/h 30.6 km/h 88.3% 0.25 mm 0 W/m2
03:44 11.7 °C 9.7 °C 999.9 hPa West 13.8 km/h 30.6 km/h 88% 0.25 mm 0 W/m2
03:49 11.6 °C 9.6 °C 999.9 hPa West 22.2 km/h 37 km/h 87.6% 0.25 mm 0 W/m2
03:54 11.4 °C 9.2 °C 999.5 hPa WSW 20.6 km/h 41.8 km/h 86.2% 0.25 mm 0 W/m2
03:59 11.3 °C 8.9 °C 999.9 hPa West 18.7 km/h 38.6 km/h 85% 0.25 mm 0 W/m2
04:04 11.3 °C 8.7 °C 999.9 hPa West 18.8 km/h 33.8 km/h 84% 0.25 mm 0 W/m2
04:09 11.2 °C 8.6 °C 999.9 hPa West 12.6 km/h 41.8 km/h 84% 0 mm 0 W/m2
04:14 11.1 °C 8.5 °C 999.9 hPa West 17.7 km/h 32.2 km/h 84% 0 mm 0 W/m2
04:19 11 °C 8.4 °C 999.9 hPa West 17.9 km/h 41.8 km/h 84% 0 mm 0 W/m2
04:24 10.9 °C 8.3 °C 999.9 hPa WSW 13.5 km/h 37 km/h 84% 0 mm 0 W/m2
04:29 10.9 °C 8.3 °C 999.9 hPa West 29 km/h 45.1 km/h 84% 0 mm 0 W/m2
04:34 10.9 °C 8.3 °C 999.9 hPa West 16.1 km/h 41.8 km/h 84% 0 mm 0 W/m2
04:39 10.8 °C 8.2 °C 999.9 hPa West 18.3 km/h 29 km/h 84% 0 mm 0 W/m2
04:44 10.7 °C 8.2 °C 1000.2 hPa West 16.4 km/h 35.4 km/h 84.4% 0 mm 0 W/m2
04:49 10.7 °C 8.2 °C 1000.2 hPa West 21.6 km/h 40.2 km/h 84.8% 0 mm 0 W/m2
04:54 10.7 °C 8.1 °C 1000.2 hPa West 26.1 km/h 37 km/h 84% 0 mm 0 W/m2
04:59 10.7 °C 8 °C 1000.2 hPa West 18.3 km/h 40.2 km/h 83.4% 0 mm 0 W/m2
05:04 10.8 °C 7.9 °C 1000.2 hPa West 24.8 km/h 48.3 km/h 83% 0 mm 0 W/m2
05:09 10.7 °C 7.9 °C 1000.2 hPa West 13.2 km/h 37 km/h 83% 0 mm 0 W/m2
05:14 10.7 °C 8 °C 1000.2 hPa West 20.1 km/h 35.4 km/h 83.4% 0 mm 0 W/m2
05:19 10.7 °C 8.1 °C 1000.2 hPa WNW 16.7 km/h 33.8 km/h 84% 0 mm 0 W/m2
05:24 10.7 °C 8.1 °C 1000.2 hPa West 20.6 km/h 35.4 km/h 84% 0 mm 0 W/m2
05:29 10.7 °C 8.2 °C 1000.2 hPa West 24.1 km/h 38.6 km/h 84.4% 0 mm 0 W/m2
05:34 10.6 °C 8 °C 1000.2 hPa West 24.1 km/h 46.7 km/h 84% 0 mm 0 W/m2
05:39 10.6 °C 7.8 °C 1000.2 hPa West 15.1 km/h 46.7 km/h 83.2% 0 mm 0 W/m2
05:44 10.4 °C 7.7 °C 1000.2 hPa West 20.9 km/h 32.2 km/h 83% 0 mm 0 W/m2
05:49 10.4 °C 7.7 °C 1000.6 hPa West 20.3 km/h 35.4 km/h 83.6% 0 mm 0 W/m2
05:54 10.4 °C 7.6 °C 1000.6 hPa West 12.1 km/h 35.4 km/h 83% 0 mm 0 W/m2
05:59 10.3 °C 7.8 °C 1000.6 hPa WSW 24.5 km/h 37 km/h 84% 0 mm 0 W/m2
06:04 10.4 °C 7.8 °C 1000.6 hPa West 17.7 km/h 38.6 km/h 84% 0 mm 0 W/m2
06:09 10.4 °C 7.8 °C 1000.6 hPa West 20.3 km/h 35.4 km/h 84% 0 mm 0 W/m2
06:14 10.4 °C 7.7 °C 1000.6 hPa West 16.3 km/h 29 km/h 83.8% 0 mm 0 W/m2
06:19 10.4 °C 7.8 °C 1000.6 hPa West 22.2 km/h 33.8 km/h 84% 0 mm 0 W/m2
06:24 10.3 °C 7.6 °C 1000.9 hPa West 25.1 km/h 37 km/h 83.4% 0 mm 0 W/m2
06:29 10.3 °C 7.4 °C 1000.9 hPa West 19.3 km/h 40.2 km/h 82.6% 0 mm 0 W/m2
06:34 10.2 °C 7.3 °C 1000.9 hPa West 16.7 km/h 35.4 km/h 82% 0 mm 0 W/m2
06:38 10.2 °C 7.3 °C 1000.9 hPa West 16.6 km/h 35.4 km/h 82% 0 mm 0 W/m2
06:44 10.2 °C 7.3 °C 1001.2 hPa WSW 16.1 km/h 33.8 km/h 82.4% 0 mm 0 W/m2
06:49 10.1 °C 7.2 °C 1001.2 hPa West 16.3 km/h 29 km/h 82.6% 0 mm 0 W/m2
06:54 10.1 °C 7.2 °C 1001.2 hPa West 23.8 km/h 30.6 km/h 82% 0 mm 0 W/m2
06:58 10 °C 6.9 °C 1001.2 hPa West 22.2 km/h 37 km/h 81.3% 0 mm 0 W/m2
07:04 10 °C 6.9 °C 1001.2 hPa West 20.3 km/h 33.8 km/h 81% 0 mm 0 W/m2
07:09 9.9 °C 6.8 °C 1001.2 hPa West 12.2 km/h 32.2 km/h 81% 0 mm 0 W/m2
07:14 9.9 °C 6.9 °C 1001.2 hPa West 15.1 km/h 32.2 km/h 81.6% 0 mm 0 W/m2
07:19 9.9 °C 7 °C 1001.2 hPa WSW 16.6 km/h 27.4 km/h 82% 0 mm 0 W/m2
07:24 9.8 °C 6.9 °C 1001.2 hPa West 16.1 km/h 30.6 km/h 82% 0 mm 0 W/m2
07:29 9.8 °C 6.9 °C 1001.2 hPa WSW 15.8 km/h 27.4 km/h 82% 0 mm 0 W/m2
07:34 9.7 °C 6.8 °C 1001.2 hPa WSW 14.2 km/h 27.4 km/h 82% 0 mm 0 W/m2
07:39 9.7 °C 6.7 °C 1001.6 hPa West 18.8 km/h 33.8 km/h 81.8% 0 mm 0 W/m2
07:44 9.7 °C 6.7 °C 1001.6 hPa West 12.7 km/h 33.8 km/h 81% 0 mm 0 W/m2
07:49 9.7 °C 6.6 °C 1001.6 hPa West 15 km/h 30.6 km/h 81% 0 mm 0 W/m2
07:54 9.7 °C 6.3 °C 1001.6 hPa WSW 12.2 km/h 24.1 km/h 80% 0 mm 0 W/m2
07:59 9.6 °C 6.3 °C 1001.6 hPa West 17.7 km/h 30.6 km/h 80% 0 mm 0 W/m2
08:04 9.6 °C 6.3 °C 1001.6 hPa WSW 15.3 km/h 30.6 km/h 80% 0 mm 0 W/m2
08:09 9.6 °C 6.3 °C 1001.6 hPa WSW 18.7 km/h 30.6 km/h 80% 0 mm 5 W/m2
08:14 9.6 °C 6.3 °C 1001.6 hPa West 11.9 km/h 25.7 km/h 80% 0 mm 7 W/m2
08:19 9.6 °C 6.2 °C 1001.6 hPa WSW 12.2 km/h 22.5 km/h 80% 0 mm 9 W/m2
08:24 9.6 °C 6.3 °C 1001.6 hPa West 14.2 km/h 20.9 km/h 80% 0 mm 19 W/m2
08:29 9.6 °C 6.3 °C 1001.6 hPa WSW 12.6 km/h 22.5 km/h 80% 0 mm 39 W/m2
08:34 9.7 °C 6.3 °C 1001.6 hPa West 21.9 km/h 41.8 km/h 80% 0 mm 16 W/m2
08:39 9.7 °C 6.3 °C 1001.6 hPa WSW 18.8 km/h 41.8 km/h 80% 0 mm 12 W/m2
08:44 9.4 °C 5.9 °C 1001.9 hPa West 18 km/h 30.6 km/h 79% 0 mm 14 W/m2
08:49 9.3 °C 5.8 °C 1001.6 hPa West 13.8 km/h 35.4 km/h 79% 0 mm 32 W/m2
08:54 9.3 °C 5.9 °C 1001.6 hPa WSW 12.6 km/h 24.1 km/h 79.8% 0 mm 67 W/m2
08:59 9.3 °C 6.1 °C 1001.6 hPa WSW 10.1 km/h 24.1 km/h 80.2% 0 mm 67 W/m2
09:04 9.4 °C 6.3 °C 1001.6 hPa West 10.9 km/h 25.7 km/h 81% 0 mm 70 W/m2
09:09 9.6 °C 6.7 °C 1001.6 hPa WSW 7.6 km/h 22.5 km/h 81.8% 0 mm 35 W/m2
09:14 9.6 °C 6.7 °C 1001.9 hPa WSW 21.4 km/h 37 km/h 82% 0 mm 47 W/m2
09:19 9.7 °C 6.5 °C 1001.9 hPa WSW 15 km/h 29 km/h 80.4% 0 mm 53 W/m2
09:24 9.7 °C 6.1 °C 1001.9 hPa WSW 13.7 km/h 33.8 km/h 78.3% 0 mm 49 W/m2
09:29 9.6 °C 5.7 °C 1001.9 hPa West 26.7 km/h 43.5 km/h 76.2% 0 mm 69 W/m2
09:34 9.6 °C 5.3 °C 1001.9 hPa West 20 km/h 43.5 km/h 75% 0 mm 132 W/m2
09:39 9.5 °C 5.4 °C 1001.9 hPa WSW 24 km/h 48.3 km/h 75.6% 0 mm 83 W/m2
09:44 9.3 °C 5.4 °C 1001.9 hPa WSW 19.6 km/h 45.1 km/h 76.4% 0 mm 70 W/m2
09:49 9.1 °C 5.3 °C 1001.9 hPa WSW 22.2 km/h 37 km/h 77% 0 mm 93 W/m2
09:54 9 °C 5.2 °C 1002.3 hPa WSW 20.4 km/h 35.4 km/h 77% 0 mm 84 W/m2
09:59 8.8 °C 5.1 °C 1001.9 hPa WSW 12.2 km/h 25.7 km/h 77% 0 mm 47 W/m2
10:03 8.8 °C 5 °C 1001.9 hPa West 15.3 km/h 29 km/h 77% 0 mm 58 W/m2
10:09 8.9 °C 5.1 °C 1001.9 hPa WSW 18.7 km/h 32.2 km/h 77% 0 mm 70 W/m2
10:14 9.1 °C 5.3 °C 1001.9 hPa West 17.9 km/h 29 km/h 77% 0 mm 81 W/m2
10:19 9.2 °C 5.3 °C 1001.9 hPa WSW 10.9 km/h 25.7 km/h 77% 0 mm 83 W/m2
10:24 9.2 °C 5.4 °C 1001.6 hPa West 13.5 km/h 25.7 km/h 77% 0 mm 91 W/m2
10:29 9.3 °C 5.3 °C 1001.9 hPa WSW 11.6 km/h 25.7 km/h 76.2% 0 mm 151 W/m2
10:34 9.6 °C 5.6 °C 1001.6 hPa WSW 12.7 km/h 29 km/h 75.8% 0 mm 179 W/m2
10:39 9.7 °C 5.5 °C 1001.6 hPa WSW 19 km/h 30.6 km/h 75% 0 mm 162 W/m2
10:44 9.8 °C 5.7 °C 1001.9 hPa West 14.2 km/h 30.6 km/h 75.2% 0 mm 171 W/m2
10:49 9.9 °C 5.9 °C 1001.6 hPa WSW 11.3 km/h 29 km/h 76% 0 mm 172 W/m2
10:54 10 °C 6.1 °C 1001.6 hPa WSW 17.4 km/h 30.6 km/h 76.4% 0 mm 220 W/m2
10:59 10.2 °C 6.1 °C 1001.6 hPa West 23.5 km/h 43.5 km/h 75.6% 0 mm 223 W/m2
11:04 10.3 °C 6.1 °C 1001.6 hPa WSW 17.4 km/h 30.6 km/h 75% 0 mm 220 W/m2
11:09 10.3 °C 6 °C 1001.6 hPa WSW 22.5 km/h 37 km/h 74.6% 0 mm 125 W/m2
11:14 10.1 °C 5.9 °C 1001.6 hPa WSW 19.3 km/h 37 km/h 75% 0 mm 120 W/m2
11:19 9.9 °C 5.7 °C 1001.6 hPa WSW 16.1 km/h 35.4 km/h 75% 0 mm 104 W/m2
11:24 9.9 °C 5.7 °C 1001.2 hPa WSW 15.4 km/h 32.2 km/h 75% 0 mm 118 W/m2
11:29 9.9 °C 5.9 °C 1001.2 hPa WSW 6.3 km/h 22.5 km/h 75.6% 0 mm 178 W/m2
11:33 10 °C 6 °C 1001.2 hPa WSW 21.4 km/h 32.2 km/h 76% 0 mm 83 W/m2
11:39 9.9 °C 5.9 °C 1001.2 hPa WSW 11.9 km/h 25.7 km/h 76% 0 mm 181 W/m2
11:44 9.9 °C 5.9 °C 1001.2 hPa WSW 27.4 km/h 35.4 km/h 76% 0 mm 90 W/m2
11:49 9.9 °C 5.9 °C 1001.2 hPa WSW 23.8 km/h 37 km/h 76% 0 mm 40 W/m2
11:54 9.8 °C 5.7 °C 1001.2 hPa WSW 20.8 km/h 37 km/h 75.8% 0 mm 60 W/m2
11:59 9.8 °C 5.6 °C 1001.2 hPa SW 22.9 km/h 45.1 km/h 75% 0 mm 186 W/m2
12:04 9.8 °C 5.3 °C 1001.2 hPa WSW 20.9 km/h 45.1 km/h 73.6% 0 mm 186 W/m2
12:09 9.9 °C 5.2 °C 1000.9 hPa West 14.5 km/h 45.1 km/h 72.6% 0 mm 185 W/m2
12:14 9.9 °C 5.1 °C 1000.9 hPa West 13.8 km/h 30.6 km/h 72% 0 mm 44 W/m2
12:19 9.8 °C 5.1 °C 1000.9 hPa West 16.1 km/h 33.8 km/h 72.2% 0 mm 74 W/m2
12:24 9.8 °C 5.2 °C 1000.6 hPa WSW 10.9 km/h 22.5 km/h 73% 0 mm 79 W/m2
12:29 9.7 °C 5.3 °C 1000.6 hPa WSW 11.7 km/h 30.6 km/h 74% 0 mm 33 W/m2
12:34 9.7 °C 5.6 °C 1000.6 hPa WSW 14.8 km/h 24.1 km/h 75.4% 0 mm 111 W/m2
12:39 9.6 °C 5.7 °C 1000.6 hPa WSW 14.8 km/h 29 km/h 76.8% 0 mm 97 W/m2
12:44 9.7 °C 5.8 °C 1000.6 hPa WSW 22.5 km/h 48.3 km/h 77% 0 mm 118 W/m2
12:49 9.7 °C 5.7 °C 1000.6 hPa WSW 12.6 km/h 48.3 km/h 76% 0 mm 137 W/m2
12:54 9.8 °C 5.8 °C 1000.6 hPa WSW 16.1 km/h 37 km/h 76% 0 mm 135 W/m2
12:59 9.8 °C 5.8 °C 1000.2 hPa WSW 16.1 km/h 32.2 km/h 76% 0 mm 125 W/m2
13:04 9.8 °C 5.7 °C 1000.2 hPa West 20.6 km/h 33.8 km/h 75.4% 0 mm 105 W/m2
13:09 9.8 °C 5.7 °C 1000.2 hPa WSW 16.3 km/h 29 km/h 75.6% 0 mm 67 W/m2
13:14 9.7 °C 5.7 °C 1000.2 hPa WSW 17.7 km/h 30.6 km/h 76% 0 mm 54 W/m2
13:19 9.7 °C 5.7 °C 999.9 hPa WSW 15.4 km/h 29 km/h 76% 0 mm 44 W/m2
13:24 9.7 °C 5.6 °C 1000.6 hPa WSW 21.9 km/h 46.7 km/h 75.6% 0 mm 14 W/m2
13:29 8.5 °C 4.8 °C 1000.9 hPa West 20.3 km/h 56.3 km/h 77.6% 0.51 mm 18 W/m2
13:34 7.6 °C 3.8 °C 1000.2 hPa SW 26.4 km/h 51.5 km/h 77.2% 0.51 mm 28 W/m2
13:39 7.3 °C 3.6 °C 1000.2 hPa WSW 19 km/h 38.6 km/h 77.2% 0.51 mm 69 W/m2
13:44 7.3 °C 3.7 °C 999.9 hPa West 18.3 km/h 35.4 km/h 78% 0.51 mm 88 W/m2
13:49 7.4 °C 3.8 °C 999.9 hPa WSW 15.1 km/h 29 km/h 78% 0.51 mm 93 W/m2
13:54 7.7 °C 4.1 °C 999.9 hPa West 15.8 km/h 22.5 km/h 78% 0.51 mm 213 W/m2
13:59 8.1 °C 4.4 °C 999.5 hPa WSW 18.7 km/h 35.4 km/h 77.4% 0.51 mm 200 W/m2
14:04 8.2 °C 4.4 °C 999.5 hPa West 15 km/h 32.2 km/h 77.2% 0.51 mm 139 W/m2
14:09 8.2 °C 4.6 °C 999.5 hPa WSW 21.1 km/h 33.8 km/h 78% 0.51 mm 118 W/m2
14:14 8.2 °C 4.6 °C 999.2 hPa West 17.7 km/h 38.6 km/h 78% 0.51 mm 105 W/m2
14:19 8.1 °C 4.7 °C 999.2 hPa WSW 17.4 km/h 35.4 km/h 78.8% 0.51 mm 42 W/m2
14:24 7.9 °C 4.5 °C 999.5 hPa SW 19.3 km/h 37 km/h 79% 0.51 mm 56 W/m2
14:29 7.8 °C 4.6 °C 999.2 hPa WSW 24.1 km/h 33.8 km/h 80% 0.25 mm 70 W/m2
14:34 7.7 °C 4.6 °C 999.2 hPa WSW 18 km/h 33.8 km/h 81% 0 mm 60 W/m2
14:39 7.6 °C 4.6 °C 999.2 hPa WSW 16.7 km/h 33.8 km/h 81.6% 0 mm 32 W/m2
14:44 7.4 °C 4.8 °C 999.2 hPa West 11.3 km/h 27.4 km/h 83% 0 mm 37 W/m2
14:49 7.5 °C 5 °C 998.9 hPa WSW 16.4 km/h 25.7 km/h 84% 0 mm 53 W/m2
14:54 7.7 °C 5.2 °C 998.9 hPa WSW 17.7 km/h 30.6 km/h 84% 0 mm 79 W/m2
14:59 7.7 °C 5.2 °C 998.9 hPa WSW 22.5 km/h 33.8 km/h 83.5% 0 mm 42 W/m2
15:04 7.7 °C 5.1 °C 998.9 hPa SW 21.6 km/h 33.8 km/h 83.6% 0 mm 23 W/m2
15:09 7.7 °C 5.2 °C 998.9 hPa SW 18 km/h 37 km/h 84% 0.51 mm 21 W/m2
15:14 7.5 °C 5.1 °C 998.9 hPa West 12.6 km/h 38.6 km/h 84.4% 0.51 mm 19 W/m2
15:19 7.4 °C 5 °C 998.9 hPa WSW 15.3 km/h 38.6 km/h 85% 0.51 mm 37 W/m2
15:24 7.6 °C 5.3 °C 998.9 hPa WSW 13.5 km/h 33.8 km/h 85.8% 0.51 mm 40 W/m2
15:29 7.7 °C 5.3 °C 998.9 hPa WSW 14.8 km/h 27.4 km/h 85% 0.51 mm 69 W/m2
15:34 7.7 °C 5.3 °C 998.5 hPa WSW 16.1 km/h 25.7 km/h 85% 0.51 mm 35 W/m2
15:39 7.8 °C 5.3 °C 998.5 hPa WSW 14.6 km/h 27.4 km/h 84.4% 0.51 mm 25 W/m2
15:44 7.8 °C 5.3 °C 998.9 hPa WSW 11.3 km/h 27.4 km/h 83.8% 0.51 mm 14 W/m2
15:49 7.9 °C 5.2 °C 998.9 hPa West 13.2 km/h 27.4 km/h 83% 0.51 mm 0 W/m2
15:54 7.9 °C 5 °C 998.9 hPa WSW 14.2 km/h 22.5 km/h 82% 0.51 mm 0 W/m2
15:59 7.8 °C 4.8 °C 999.2 hPa WSW 26.7 km/h 56.3 km/h 81.8% 0.51 mm 0 W/m2
16:04 7.2 °C 4.3 °C 998.9 hPa WSW 20.9 km/h 43.5 km/h 82.2% 0.76 mm 0 W/m2
16:09 6.9 °C 4.3 °C 998.9 hPa West 14.2 km/h 32.2 km/h 83.6% 0.76 mm 0 W/m2
16:14 6.8 °C 4.4 °C 999.2 hPa West 24.5 km/h 37 km/h 84.6% 0.76 mm 0 W/m2
16:19 6.4 °C 4.2 °C 998.5 hPa WSW 12.9 km/h 40.2 km/h 85.4% 1.02 mm 0 W/m2
16:24 6.3 °C 4.2 °C 998.5 hPa WSW 14.5 km/h 22.5 km/h 86.2% 1.27 mm 0 W/m2
16:29 6.3 °C 4.3 °C 998.5 hPa WSW 10.8 km/h 20.9 km/h 87% 1.27 mm 0 W/m2
16:34 6.3 °C 4.3 °C 998.2 hPa WSW 9 km/h 22.5 km/h 87% 1.27 mm 0 W/m2
16:39 6.3 °C 4.3 °C 998.2 hPa West 7.1 km/h 20.9 km/h 87% 1.27 mm 0 W/m2
16:44 6.4 °C 4.4 °C 998.2 hPa WSW 10.3 km/h 17.7 km/h 87% 1.27 mm 0 W/m2
16:49 6.6 °C 4.6 °C 998.2 hPa SW 6 km/h 16.1 km/h 87% 1.27 mm 0 W/m2
16:54 6.7 °C 4.7 °C 998.2 hPa WSW 12.6 km/h 22.5 km/h 87% 1.27 mm 0 W/m2
16:59 6.8 °C 4.8 °C 998.2 hPa WSW 13.8 km/h 22.5 km/h 87% 1.27 mm 0 W/m2
17:04 7.1 °C 4.9 °C 997.9 hPa WSW 17.7 km/h 32.2 km/h 86.6% 0.76 mm 0 W/m2
17:09 7.1 °C 4.9 °C 998.2 hPa WSW 13.5 km/h 22.5 km/h 86% 0.76 mm 0 W/m2
17:14 7.2 °C 4.8 °C 997.9 hPa West 20.3 km/h 33.8 km/h 85.2% 0.51 mm 0 W/m2
17:19 7.2 °C 4.8 °C 997.9 hPa SW 14.2 km/h 32.2 km/h 85% 0.25 mm 0 W/m2
17:24 7.3 °C 4.8 °C 997.9 hPa SW 16.7 km/h 33.8 km/h 84% 0.25 mm 0 W/m2
17:29 7.3 °C 4.8 °C 997.9 hPa SW 16.6 km/h 25.7 km/h 84% 0 mm 0 W/m2
17:34 7.3 °C 4.7 °C 997.9 hPa SW 17.2 km/h 27.4 km/h 83.2% 0 mm 0 W/m2
17:39 7.4 °C 4.7 °C 997.9 hPa WSW 17.4 km/h 30.6 km/h 83% 0 mm 0 W/m2
17:44 7.4 °C 4.6 °C 997.9 hPa SW 26.1 km/h 43.5 km/h 82% 0 mm 0 W/m2
17:49 7.6 °C 4.5 °C 997.5 hPa WSW 19.5 km/h 30.6 km/h 81% 0 mm 0 W/m2
17:54 7.6 °C 4.4 °C 997.5 hPa WSW 22.5 km/h 35.4 km/h 80.2% 0 mm 0 W/m2
17:59 7.6 °C 4.4 °C 997.5 hPa WSW 20.1 km/h 35.4 km/h 80% 0 mm 0 W/m2
18:04 7.6 °C 4.3 °C 997.5 hPa SW 18.3 km/h 32.2 km/h 80% 0 mm 0 W/m2
18:09 7.4 °C 4.1 °C 997.5 hPa WSW 21.9 km/h 40.2 km/h 79.4% 0 mm 0 W/m2
18:13 7.4 °C 4 °C 997.2 hPa WSW 14.5 km/h 35.4 km/h 79% 0 mm 0 W/m2
18:19 7.3 °C 3.9 °C 997.2 hPa SW 18 km/h 29 km/h 79% 0 mm 0 W/m2
18:24 7.3 °C 3.9 °C 997.2 hPa SW 17.1 km/h 32.2 km/h 79% 0 mm 0 W/m2
18:29 7.2 °C 3.8 °C 997.2 hPa WSW 18.7 km/h 29 km/h 79% 0 mm 0 W/m2
18:34 7.1 °C 3.8 °C 997.2 hPa WSW 13.5 km/h 29 km/h 79.8% 0 mm 0 W/m2
18:39 6.9 °C 3.8 °C 996.8 hPa SW 9 km/h 20.9 km/h 80.6% 0 mm 0 W/m2
18:44 6.7 °C 3.8 °C 996.8 hPa SW 12.6 km/h 24.1 km/h 81.4% 0 mm 0 W/m2
18:49 6.6 °C 3.8 °C 996.8 hPa SW 14.8 km/h 22.5 km/h 82.2% 0 mm 0 W/m2
18:54 6.5 °C 3.8 °C 996.8 hPa SSW 15.8 km/h 29 km/h 83% 0 mm 0 W/m2
18:59 6.4 °C 3.8 °C 996.8 hPa SW 11.9 km/h 33.8 km/h 83.4% 0 mm 0 W/m2
19:04 6.4 °C 3.8 °C 996.8 hPa SW 13.7 km/h 22.5 km/h 83.8% 0 mm 0 W/m2
19:09 6.4 °C 3.9 °C 996.8 hPa SW 18 km/h 24.1 km/h 84% 0 mm 0 W/m2
19:14 6.3 °C 4 °C 996.8 hPa SW 12.4 km/h 29 km/h 84.8% 0 mm 0 W/m2
19:19 6.3 °C 4.1 °C 996.5 hPa WSW 21.6 km/h 29 km/h 85.6% 0 mm 0 W/m2
19:24 6.3 °C 4.1 °C 996.5 hPa SW 14.2 km/h 30.6 km/h 86% 0 mm 0 W/m2
19:29 6.2 °C 4.1 °C 996.2 hPa SW 10.9 km/h 19.3 km/h 86% 0 mm 0 W/m2
19:33 6.3 °C 4.1 °C 996.2 hPa SW 12.7 km/h 25.7 km/h 86% 0 mm 0 W/m2
19:39 6.3 °C 4.2 °C 996.2 hPa WSW 12.2 km/h 27.4 km/h 86% 0 mm 0 W/m2
19:44 6.4 °C 4.2 °C 996.2 hPa SW 9.7 km/h 22.5 km/h 85% 0.25 mm 0 W/m2
19:49 6.6 °C 4.3 °C 995.8 hPa SSW 16.7 km/h 29 km/h 85% 0.25 mm 0 W/m2
19:54 6.6 °C 4.3 °C 995.8 hPa SW 15.4 km/h 29 km/h 85% 0.25 mm 0 W/m2
19:59 6.5 °C 4.3 °C 996.2 hPa SSW 22 km/h 37 km/h 85.4% 0.51 mm 0 W/m2
20:04 6.4 °C 4.2 °C 996.2 hPa SW 18.5 km/h 37 km/h 86% 0.76 mm 0 W/m2
20:09 6.3 °C 4.2 °C 995.8 hPa SW 12.2 km/h 32.2 km/h 86.8% 1.02 mm 0 W/m2
20:14 6.2 °C 4.2 °C 995.8 hPa SW 14.5 km/h 25.7 km/h 87% 1.02 mm 0 W/m2
20:19 6.2 °C 4.3 °C 995.5 hPa SW 10.6 km/h 25.7 km/h 87.6% 1.02 mm 0 W/m2
20:24 6.2 °C 4.4 °C 995.1 hPa SW 11.7 km/h 22.5 km/h 88% 1.02 mm 0 W/m2
20:29 6.2 °C 4.4 °C 995.1 hPa SSW 9.8 km/h 22.5 km/h 88% 1.02 mm 0 W/m2
20:34 6.1 °C 4.3 °C 995.1 hPa SW 12.6 km/h 29 km/h 88% 1.02 mm 0 W/m2
20:39 6.1 °C 4.3 °C 994.8 hPa SW 7.9 km/h 17.7 km/h 88% 1.02 mm 0 W/m2
20:44 6.1 °C 4.3 °C 994.5 hPa SW 12.2 km/h 20.9 km/h 88% 1.02 mm 0 W/m2
20:49 6.2 °C 4.3 °C 994.5 hPa SW 10.5 km/h 20.9 km/h 88% 1.02 mm 0 W/m2
20:54 6.2 °C 4.4 °C 994.5 hPa SSW 7.6 km/h 29 km/h 88% 1.02 mm 0 W/m2
20:59 6.2 °C 4.4 °C 994.1 hPa SW 13.5 km/h 24.1 km/h 88% 1.27 mm 0 W/m2
21:04 6.2 °C 4.3 °C 994.1 hPa SSW 12.7 km/h 27.4 km/h 88% 1.02 mm 0 W/m2
21:09 6.1 °C 4.3 °C 994.1 hPa SW 12.2 km/h 25.7 km/h 88% 1.27 mm 0 W/m2
21:14 6 °C 4.2 °C 993.8 hPa SW 15.4 km/h 27.4 km/h 88% 1.78 mm 0 W/m2
21:19 6 °C 4.2 °C 993.5 hPa SW 7.7 km/h 17.7 km/h 88.2% 1.78 mm 0 W/m2
21:24 5.9 °C 4.2 °C 993.1 hPa SSW 5.3 km/h 11.3 km/h 88.8% 2.03 mm 0 W/m2
21:29 6 °C 4.3 °C 992.8 hPa SSW 5.8 km/h 11.3 km/h 89% 2.03 mm 0 W/m2
21:34 6 °C 4.3 °C 992.8 hPa SSW 7.2 km/h 14.5 km/h 89% 2.29 mm 0 W/m2
21:39 6.1 °C 4.4 °C 992.4 hPa SSW 8.7 km/h 19.3 km/h 89% 2.29 mm 0 W/m2
21:44 6.1 °C 4.6 °C 992.4 hPa South 9.7 km/h 19.3 km/h 89.8% 2.54 mm 0 W/m2
21:49 6.2 °C 4.7 °C 991.8 hPa SSW 10 km/h 22.5 km/h 90% 2.79 mm 0 W/m2
21:54 6.3 °C 4.8 °C 991.4 hPa South 8.4 km/h 22.5 km/h 90% 2.54 mm 0 W/m2
21:59 6.3 °C 4.8 °C 991.4 hPa SSW 8.9 km/h 19.3 km/h 90% 2.54 mm 0 W/m2
22:04 6.4 °C 4.9 °C 991.1 hPa SSW 17.1 km/h 27.4 km/h 90% 2.29 mm 0 W/m2
22:09 6.4 °C 4.9 °C 990.7 hPa SSW 11.9 km/h 25.7 km/h 90% 2.03 mm 0 W/m2
22:14 6.4 °C 4.9 °C 990.7 hPa SW 10 km/h 24.1 km/h 90% 2.03 mm 0 W/m2
22:19 6.4 °C 5 °C 990.4 hPa SSW 15.8 km/h 27.4 km/h 90.6% 2.29 mm 0 W/m2
22:24 6.6 °C 5.2 °C 990.4 hPa SW 7.6 km/h 27.4 km/h 91% 2.29 mm 0 W/m2
22:29 6.7 °C 5.3 °C 990.4 hPa SW 12.6 km/h 24.1 km/h 91% 3.05 mm 0 W/m2
22:34 6.8 °C 5.3 °C 990.1 hPa SW 21.6 km/h 45.1 km/h 91% 3.3 mm 0 W/m2
22:39 7.3 °C 5.9 °C 990.1 hPa WSW 20.9 km/h 43.5 km/h 91.5% 3.3 mm 0 W/m2
22:44 7.6 °C 6.2 °C 990.1 hPa WSW 16.1 km/h 35.4 km/h 91.2% 3.05 mm 0 W/m2
22:49 7.8 °C 6.6 °C 990.4 hPa West 18 km/h 37 km/h 92% 2.79 mm 0 W/m2
22:54 7.9 °C 6.7 °C 990.7 hPa West 23.8 km/h 40.2 km/h 91.6% 2.54 mm 0 W/m2
22:59 8.1 °C 6.9 °C 990.7 hPa West 18.5 km/h 37 km/h 92% 2.54 mm 0 W/m2
23:04 8.1 °C 6.8 °C 991.1 hPa West 17.1 km/h 33.8 km/h 91.2% 2.29 mm 0 W/m2
23:09 8.2 °C 6.8 °C 991.4 hPa West 20.3 km/h 33.8 km/h 91% 2.29 mm 0 W/m2
23:14 8.2 °C 6.8 °C 991.4 hPa West 28.8 km/h 53.1 km/h 90.8% 2.03 mm 0 W/m2
23:19 8.2 °C 6.7 °C 991.8 hPa West 19.6 km/h 45.1 km/h 89.6% 1.52 mm 0 W/m2
23:24 8.2 °C 6.4 °C 992.1 hPa West 27.4 km/h 53.1 km/h 88.6% 1.27 mm 0 W/m2
23:29 8.2 °C 6.3 °C 992.1 hPa West 21.2 km/h 41.8 km/h 87.2% 0.51 mm 0 W/m2
23:33 8.2 °C 6.1 °C 992.4 hPa WNW 15.6 km/h 41.8 km/h 86.3% 0.25 mm 0 W/m2
23:39 8.2 °C 6 °C 992.4 hPa West 21.6 km/h 33.8 km/h 86% 0 mm 0 W/m2
23:44 8.1 °C 5.9 °C 992.4 hPa West 14 km/h 32.2 km/h 86% 0 mm 0 W/m2
23:49 8.1 °C 5.8 °C 992.8 hPa West 16.4 km/h 35.4 km/h 85.4% 0 mm 0 W/m2
23:54 8 °C 5.6 °C 992.8 hPa West 18 km/h 33.8 km/h 85% 0 mm 0 W/m2
23:59 8 °C 5.6 °C 992.8 hPa West 21.7 km/h 37 km/h 85% 0 mm 0 W/m2
Bath Spa Weather
Compliments of Weather Underground - 2 mb